sensor_id;sensor_type;location;lat;lon;timestamp;temperature;humidity
63051;SHT30;49136;47.416;19.402;2023-12-29T00:01:31;-1.01;99.99
63051;SHT30;49136;47.416;19.402;2023-12-29T00:03:56;-1.04;99.99
63051;SHT30;49136;47.416;19.402;2023-12-29T00:06:22;-1.05;99.99
63051;SHT30;49136;47.416;19.402;2023-12-29T00:08:47;-1.05;99.99
63051;SHT30;49136;47.416;19.402;2023-12-29T00:11:20;-1.04;99.99
63051;SHT30;49136;47.416;19.402;2023-12-29T00:13:46;-1.03;99.99
63051;SHT30;49136;47.416;19.402;2023-12-29T00:16:11;-1.04;99.99
63051;SHT30;49136;47.416;19.402;2023-12-29T00:18:37;-0.94;99.99
63051;SHT30;49136;47.416;19.402;2023-12-29T00:21:03;-1.01;99.99
63051;SHT30;49136;47.416;19.402;2023-12-29T00:23:29;-1.05;99.99
63051;SHT30;49136;47.416;19.402;2023-12-29T00:25:54;-1.09;99.99
63051;SHT30;49136;47.416;19.402;2023-12-29T00:28:19;-1.11;99.99
63051;SHT30;49136;47.416;19.402;2023-12-29T00:30:45;-1.11;99.99
63051;SHT30;49136;47.416;19.402;2023-12-29T00:33:10;-1.16;99.99
63051;SHT30;49136;47.416;19.402;2023-12-29T00:35:39;-1.04;99.99
63051;SHT30;49136;47.416;19.402;2023-12-29T00:38:05;-1.04;99.99
63051;SHT30;49136;47.416;19.402;2023-12-29T00:40:31;-0.98;99.99
63051;SHT30;49136;47.416;19.402;2023-12-29T00:42:56;-1.01;99.99
63051;SHT30;49136;47.416;19.402;2023-12-29T00:45:21;-1.05;99.99
63051;SHT30;49136;47.416;19.402;2023-12-29T00:47:47;-1.03;99.99
63051;SHT30;49136;47.416;19.402;2023-12-29T00:50:14;-0.94;99.99
63051;SHT30;49136;47.416;19.402;2023-12-29T00:52:39;-0.79;99.99
63051;SHT30;49136;47.416;19.402;2023-12-29T00:55:05;-0.84;99.99
63051;SHT30;49136;47.416;19.402;2023-12-29T00:57:30;-0.84;99.99
63051;SHT30;49136;47.416;19.402;2023-12-29T00:59:56;-0.84;99.99
63051;SHT30;49136;47.416;19.402;2023-12-29T01:02:21;-0.84;99.99
63051;SHT30;49136;47.416;19.402;2023-12-29T01:04:47;-0.83;99.99
63051;SHT30;49136;47.416;19.402;2023-12-29T01:07:12;-0.86;99.99
63051;SHT30;49136;47.416;19.402;2023-12-29T01:09:38;-0.93;99.99
63051;SHT30;49136;47.416;19.402;2023-12-29T01:12:05;-0.94;99.99
63051;SHT30;49136;47.416;19.402;2023-12-29T01:14:31;-0.97;99.99
63051;SHT30;49136;47.416;19.402;2023-12-29T01:16:56;-0.98;99.99
63051;SHT30;49136;47.416;19.402;2023-12-29T01:19:21;-1.03;99.99
63051;SHT30;49136;47.416;19.402;2023-12-29T01:21:47;-1.00;99.99
63051;SHT30;49136;47.416;19.402;2023-12-29T01:24:12;-1.04;99.99
63051;SHT30;49136;47.416;19.402;2023-12-29T01:26:38;-1.03;99.99
63051;SHT30;49136;47.416;19.402;2023-12-29T01:29:04;-1.04;99.99
63051;SHT30;49136;47.416;19.402;2023-12-29T01:31:30;-1.01;99.99
63051;SHT30;49136;47.416;19.402;2023-12-29T01:33:58;-0.97;99.99
63051;SHT30;49136;47.416;19.402;2023-12-29T01:36:23;-0.93;99.99
63051;SHT30;49136;47.416;19.402;2023-12-29T01:38:49;-0.90;99.99
63051;SHT30;49136;47.416;19.402;2023-12-29T01:41:14;-0.88;99.99
63051;SHT30;49136;47.416;19.402;2023-12-29T01:44:15;-0.83;99.99
63051;SHT30;49136;47.416;19.402;2023-12-29T01:46:42;-0.80;99.99
63051;SHT30;49136;47.416;19.402;2023-12-29T01:49:07;-0.80;99.99
63051;SHT30;49136;47.416;19.402;2023-12-29T01:51:33;-0.81;99.99
63051;SHT30;49136;47.416;19.402;2023-12-29T01:53:59;-0.79;99.99
63051;SHT30;49136;47.416;19.402;2023-12-29T01:56:25;-0.79;99.99
63051;SHT30;49136;47.416;19.402;2023-12-29T01:58:51;-0.80;99.99
63051;SHT30;49136;47.416;19.402;2023-12-29T02:01:19;-0.76;99.99
63051;SHT30;49136;47.416;19.402;2023-12-29T02:03:46;-0.70;99.99
63051;SHT30;49136;47.416;19.402;2023-12-29T02:06:12;-0.59;99.99
63051;SHT30;49136;47.416;19.402;2023-12-29T02:08:40;-0.55;99.99
63051;SHT30;49136;47.416;19.402;2023-12-29T02:11:06;-0.48;99.99
63051;SHT30;49136;47.416;19.402;2023-12-29T02:13:31;-0.44;99.99
63051;SHT30;49136;47.416;19.402;2023-12-29T02:16:03;-0.42;99.99
63051;SHT30;49136;47.416;19.402;2023-12-29T02:18:33;-0.38;99.99
63051;SHT30;49136;47.416;19.402;2023-12-29T02:20:59;-0.31;99.99
63051;SHT30;49136;47.416;19.402;2023-12-29T02:23:28;-0.21;99.99
63051;SHT30;49136;47.416;19.402;2023-12-29T02:25:55;-0.21;99.99
63051;SHT30;49136;47.416;19.402;2023-12-29T02:28:25;-0.17;99.99
63051;SHT30;49136;47.416;19.402;2023-12-29T02:30:58;-0.14;99.99
63051;SHT30;49136;47.416;19.402;2023-12-29T02:33:26;-0.03;99.99
63051;SHT30;49136;47.416;19.402;2023-12-29T02:35:55;-0.03;99.99
63051;SHT30;49136;47.416;19.402;2023-12-29T02:38:22;0.00;99.99
63051;SHT30;49136;47.416;19.402;2023-12-29T02:40:47;0.00;99.99
63051;SHT30;49136;47.416;19.402;2023-12-29T02:43:13;0.00;99.99
63051;SHT30;49136;47.416;19.402;2023-12-29T02:45:38;0.01;99.99
63051;SHT30;49136;47.416;19.402;2023-12-29T02:48:04;0.04;99.99
63051;SHT30;49136;47.416;19.402;2023-12-29T02:50:29;0.06;99.99
63051;SHT30;49136;47.416;19.402;2023-12-29T02:52:55;0.03;99.99
63051;SHT30;49136;47.416;19.402;2023-12-29T02:55:20;0.14;99.99
63051;SHT30;49136;47.416;19.402;2023-12-29T02:57:46;0.11;99.99
63051;SHT30;49136;47.416;19.402;2023-12-29T03:00:11;0.11;99.99
63051;SHT30;49136;47.416;19.402;2023-12-29T03:02:37;0.14;99.99
63051;SHT30;49136;47.416;19.402;2023-12-29T03:05:03;0.17;99.99
63051;SHT30;49136;47.416;19.402;2023-12-29T03:07:28;0.18;99.99
63051;SHT30;49136;47.416;19.402;2023-12-29T03:09:54;0.17;99.99
63051;SHT30;49136;47.416;19.402;2023-12-29T03:12:19;0.18;99.99
63051;SHT30;49136;47.416;19.402;2023-12-29T03:14:44;0.21;99.99
63051;SHT30;49136;47.416;19.402;2023-12-29T03:17:12;0.26;99.99
63051;SHT30;49136;47.416;19.402;2023-12-29T03:19:37;0.41;99.99
63051;SHT30;49136;47.416;19.402;2023-12-29T03:22:02;0.34;99.99
63051;SHT30;49136;47.416;19.402;2023-12-29T03:24:29;0.31;99.99
63051;SHT30;49136;47.416;19.402;2023-12-29T03:26:54;0.29;99.99
63051;SHT30;49136;47.416;19.402;2023-12-29T03:29:20;0.35;99.99
63051;SHT30;49136;47.416;19.402;2023-12-29T03:31:45;0.41;99.99
63051;SHT30;49136;47.416;19.402;2023-12-29T03:34:11;0.39;99.99
63051;SHT30;49136;47.416;19.402;2023-12-29T03:36:36;0.45;99.99
63051;SHT30;49136;47.416;19.402;2023-12-29T03:39:02;0.52;99.99
63051;SHT30;49136;47.416;19.402;2023-12-29T03:41:28;0.52;99.99
63051;SHT30;49136;47.416;19.402;2023-12-29T03:43:53;0.59;99.99
63051;SHT30;49136;47.416;19.402;2023-12-29T03:46:22;0.48;99.99
63051;SHT30;49136;47.416;19.402;2023-12-29T03:48:48;0.42;99.99
63051;SHT30;49136;47.416;19.402;2023-12-29T03:51:17;0.45;99.99
63051;SHT30;49136;47.416;19.402;2023-12-29T03:53:43;0.39;99.99
63051;SHT30;49136;47.416;19.402;2023-12-29T03:56:12;0.35;99.99
63051;SHT30;49136;47.416;19.402;2023-12-29T03:58:38;0.31;99.99
63051;SHT30;49136;47.416;19.402;2023-12-29T04:01:03;0.28;99.99
63051;SHT30;49136;47.416;19.402;2023-12-29T04:03:29;0.26;99.99
63051;SHT30;49136;47.416;19.402;2023-12-29T04:05:54;0.25;99.99
63051;SHT30;49136;47.416;19.402;2023-12-29T04:08:20;0.21;99.99
63051;SHT30;49136;47.416;19.402;2023-12-29T04:10:45;0.17;99.99
63051;SHT30;49136;47.416;19.402;2023-12-29T04:13:10;0.18;99.99
63051;SHT30;49136;47.416;19.402;2023-12-29T04:15:36;0.11;99.99
63051;SHT30;49136;47.416;19.402;2023-12-29T04:18:01;0.10;99.99
63051;SHT30;49136;47.416;19.402;2023-12-29T04:20:27;0.10;99.99
63051;SHT30;49136;47.416;19.402;2023-12-29T04:22:52;0.03;99.99
63051;SHT30;49136;47.416;19.402;2023-12-29T04:25:18;-0.06;99.99
63051;SHT30;49136;47.416;19.402;2023-12-29T04:27:43;-0.13;99.99
63051;SHT30;49136;47.416;19.402;2023-12-29T04:30:09;-0.18;99.99
63051;SHT30;49136;47.416;19.402;2023-12-29T04:32:35;-0.24;99.99
63051;SHT30;49136;47.416;19.402;2023-12-29T04:35:00;-0.29;99.99
63051;SHT30;49136;47.416;19.402;2023-12-29T04:37:25;-0.34;99.99
63051;SHT30;49136;47.416;19.402;2023-12-29T04:39:51;-0.38;99.99
63051;SHT30;49136;47.416;19.402;2023-12-29T04:42:16;-0.41;99.99
63051;SHT30;49136;47.416;19.402;2023-12-29T04:44:43;-0.45;99.99
63051;SHT30;49136;47.416;19.402;2023-12-29T04:47:08;-0.48;99.99
63051;SHT30;49136;47.416;19.402;2023-12-29T04:49:34;-0.38;99.99
63051;SHT30;49136;47.416;19.402;2023-12-29T04:51:59;-0.46;99.99
63051;SHT30;49136;47.416;19.402;2023-12-29T04:54:25;-0.51;99.99
63051;SHT30;49136;47.416;19.402;2023-12-29T04:56:50;-0.56;99.99
63051;SHT30;49136;47.416;19.402;2023-12-29T04:59:16;-0.61;99.99
63051;SHT30;49136;47.416;19.402;2023-12-29T05:01:41;-0.58;99.99
63051;SHT30;49136;47.416;19.402;2023-12-29T05:04:07;-0.56;99.99
63051;SHT30;49136;47.416;19.402;2023-12-29T05:06:32;-0.56;99.99
63051;SHT30;49136;47.416;19.402;2023-12-29T05:08:57;-0.66;99.99
63051;SHT30;49136;47.416;19.402;2023-12-29T05:11:23;-0.74;99.99
63051;SHT30;49136;47.416;19.402;2023-12-29T05:13:48;-0.69;99.99
63051;SHT30;49136;47.416;19.402;2023-12-29T05:16:13;-0.73;99.99
63051;SHT30;49136;47.416;19.402;2023-12-29T05:18:39;-0.81;99.99
63051;SHT30;49136;47.416;19.402;2023-12-29T05:21:05;-0.87;99.99
63051;SHT30;49136;47.416;19.402;2023-12-29T05:23:30;-0.77;99.99
63051;SHT30;49136;47.416;19.402;2023-12-29T05:25:56;-0.81;99.99
63051;SHT30;49136;47.416;19.402;2023-12-29T05:28:22;-0.83;99.99
63051;SHT30;49136;47.416;19.402;2023-12-29T05:30:47;-0.81;99.99
63051;SHT30;49136;47.416;19.402;2023-12-29T05:33:13;-0.73;99.99
63051;SHT30;49136;47.416;19.402;2023-12-29T05:35:38;-0.77;99.99
63051;SHT30;49136;47.416;19.402;2023-12-29T05:38:03;-0.62;99.99
63051;SHT30;49136;47.416;19.402;2023-12-29T05:40:29;-0.62;99.99
63051;SHT30;49136;47.416;19.402;2023-12-29T05:42:54;-0.63;99.99
63051;SHT30;49136;47.416;19.402;2023-12-29T05:45:20;-0.55;99.99
63051;SHT30;49136;47.416;19.402;2023-12-29T05:47:45;-0.66;99.99
63051;SHT30;49136;47.416;19.402;2023-12-29T05:50:11;-0.51;99.99
63051;SHT30;49136;47.416;19.402;2023-12-29T05:52:36;-0.20;99.99
63051;SHT30;49136;47.416;19.402;2023-12-29T05:55:02;-0.41;99.99
63051;SHT30;49136;47.416;19.402;2023-12-29T05:57:28;-0.48;99.99
63051;SHT30;49136;47.416;19.402;2023-12-29T05:59:53;-0.55;99.99
63051;SHT30;49136;47.416;19.402;2023-12-29T06:02:19;-0.53;99.99
63051;SHT30;49136;47.416;19.402;2023-12-29T06:04:44;-0.53;99.99
63051;SHT30;49136;47.416;19.402;2023-12-29T06:07:09;-0.63;99.99
63051;SHT30;49136;47.416;19.402;2023-12-29T06:09:36;-0.77;99.99
63051;SHT30;49136;47.416;19.402;2023-12-29T06:12:01;-0.68;99.99
63051;SHT30;49136;47.416;19.402;2023-12-29T06:14:27;-0.74;99.99
63051;SHT30;49136;47.416;19.402;2023-12-29T06:16:52;-0.61;99.99
63051;SHT30;49136;47.416;19.402;2023-12-29T06:19:18;-0.69;99.99
63051;SHT30;49136;47.416;19.402;2023-12-29T06:21:43;-0.72;99.99
63051;SHT30;49136;47.416;19.402;2023-12-29T06:24:12;-0.77;99.99
63051;SHT30;49136;47.416;19.402;2023-12-29T06:26:37;-0.83;99.99
63051;SHT30;49136;47.416;19.402;2023-12-29T06:29:09;-0.87;99.99
63051;SHT30;49136;47.416;19.402;2023-12-29T06:31:34;-0.81;99.99
63051;SHT30;49136;47.416;19.402;2023-12-29T06:33:59;-0.79;99.99
63051;SHT30;49136;47.416;19.402;2023-12-29T06:36:25;-0.83;99.99
63051;SHT30;49136;47.416;19.402;2023-12-29T06:38:51;-0.96;99.99
63051;SHT30;49136;47.416;19.402;2023-12-29T06:41:18;-1.03;99.99
63051;SHT30;49136;47.416;19.402;2023-12-29T06:43:44;-1.05;99.99
63051;SHT30;49136;47.416;19.402;2023-12-29T06:46:09;-1.04;99.99
63051;SHT30;49136;47.416;19.402;2023-12-29T06:48:36;-1.09;99.99
63051;SHT30;49136;47.416;19.402;2023-12-29T06:51:01;-1.16;99.99
63051;SHT30;49136;47.416;19.402;2023-12-29T06:53:26;-1.19;99.99
63051;SHT30;49136;47.416;19.402;2023-12-29T06:55:52;-1.19;99.99
63051;SHT30;49136;47.416;19.402;2023-12-29T06:58:18;-1.24;99.99
63051;SHT30;49136;47.416;19.402;2023-12-29T07:00:43;-1.27;99.99
63051;SHT30;49136;47.416;19.402;2023-12-29T07:03:09;-1.16;99.99
63051;SHT30;49136;47.416;19.402;2023-12-29T07:05:34;-1.07;99.99
63051;SHT30;49136;47.416;19.402;2023-12-29T07:07:59;-1.04;99.99
63051;SHT30;49136;47.416;19.402;2023-12-29T07:10:25;-1.00;99.99
63051;SHT30;49136;47.416;19.402;2023-12-29T07:12:50;-0.90;99.99
63051;SHT30;49136;47.416;19.402;2023-12-29T07:15:16;-0.61;99.99
63051;SHT30;49136;47.416;19.402;2023-12-29T07:17:41;-0.48;99.99
63051;SHT30;49136;47.416;19.402;2023-12-29T07:20:07;-0.28;99.99
63051;SHT30;49136;47.416;19.402;2023-12-29T07:22:33;0.01;99.99
63051;SHT30;49136;47.416;19.402;2023-12-29T07:24:58;-0.09;99.99
63051;SHT30;49136;47.416;19.402;2023-12-29T07:27:24;-0.17;99.99
63051;SHT30;49136;47.416;19.402;2023-12-29T07:29:50;-0.14;99.99
63051;SHT30;49136;47.416;19.402;2023-12-29T07:32:17;-0.15;99.99
63051;SHT30;49136;47.416;19.402;2023-12-29T07:34:42;-0.13;99.99
63051;SHT30;49136;47.416;19.402;2023-12-29T07:37:09;-0.13;99.99
63051;SHT30;49136;47.416;19.402;2023-12-29T07:39:38;0.01;99.99
63051;SHT30;49136;47.416;19.402;2023-12-29T07:42:04;0.17;99.99
63051;SHT30;49136;47.416;19.402;2023-12-29T07:44:30;0.22;99.99
63051;SHT30;49136;47.416;19.402;2023-12-29T07:46:57;0.37;99.99
63051;SHT30;49136;47.416;19.402;2023-12-29T07:49:22;0.46;99.99
63051;SHT30;49136;47.416;19.402;2023-12-29T07:51:48;0.56;99.99
63051;SHT30;49136;47.416;19.402;2023-12-29T07:54:19;0.63;99.99
63051;SHT30;49136;47.416;19.402;2023-12-29T07:56:45;0.83;99.99
63051;SHT30;49136;47.416;19.402;2023-12-29T07:59:10;0.95;99.99
63051;SHT30;49136;47.416;19.402;2023-12-29T08:01:38;1.12;99.99
63051;SHT30;49136;47.416;19.402;2023-12-29T08:04:04;1.22;99.99
63051;SHT30;49136;47.416;19.402;2023-12-29T08:06:31;1.28;99.99
63051;SHT30;49136;47.416;19.402;2023-12-29T08:08:56;1.40;99.99
63051;SHT30;49136;47.416;19.402;2023-12-29T08:11:21;1.46;99.99
63051;SHT30;49136;47.416;19.402;2023-12-29T08:13:48;1.61;99.99
63051;SHT30;49136;47.416;19.402;2023-12-29T08:16:14;1.77;99.99
63051;SHT30;49136;47.416;19.402;2023-12-29T08:18:39;1.95;99.99
63051;SHT30;49136;47.416;19.402;2023-12-29T08:21:04;2.12;99.99
63051;SHT30;49136;47.416;19.402;2023-12-29T08:23:30;2.29;99.99
63051;SHT30;49136;47.416;19.402;2023-12-29T08:25:56;2.43;99.99
63051;SHT30;49136;47.416;19.402;2023-12-29T08:28:23;2.58;99.99
63051;SHT30;49136;47.416;19.402;2023-12-29T08:30:49;2.77;99.99
63051;SHT30;49136;47.416;19.402;2023-12-29T08:33:14;2.92;99.99
63051;SHT30;49136;47.416;19.402;2023-12-29T08:35:40;3.03;99.99
63051;SHT30;49136;47.416;19.402;2023-12-29T08:38:07;3.16;99.99
63051;SHT30;49136;47.416;19.402;2023-12-29T08:40:33;3.31;99.99
63051;SHT30;49136;47.416;19.402;2023-12-29T08:42:58;3.50;99.99
63051;SHT30;49136;47.416;19.402;2023-12-29T08:45:25;3.65;99.99
63051;SHT30;49136;47.416;19.402;2023-12-29T08:47:51;3.85;99.99
63051;SHT30;49136;47.416;19.402;2023-12-29T08:50:16;4.04;99.99
63051;SHT30;49136;47.416;19.402;2023-12-29T08:52:42;4.27;99.99
63051;SHT30;49136;47.416;19.402;2023-12-29T08:55:08;4.38;99.99
63051;SHT30;49136;47.416;19.402;2023-12-29T08:57:35;4.51;99.99
63051;SHT30;49136;47.416;19.402;2023-12-29T09:00:00;4.72;99.99
63051;SHT30;49136;47.416;19.402;2023-12-29T09:02:26;4.87;99.99
63051;SHT30;49136;47.416;19.402;2023-12-29T09:04:51;4.93;99.99
63051;SHT30;49136;47.416;19.402;2023-12-29T09:07:16;5.03;99.99
63051;SHT30;49136;47.416;19.402;2023-12-29T09:09:42;5.15;99.99
63051;SHT30;49136;47.416;19.402;2023-12-29T09:12:07;5.05;99.99
63051;SHT30;49136;47.416;19.402;2023-12-29T09:14:33;5.21;99.99
63051;SHT30;49136;47.416;19.402;2023-12-29T09:17:00;5.35;99.99
63051;SHT30;49136;47.416;19.402;2023-12-29T09:19:25;5.40;99.99
63051;SHT30;49136;47.416;19.402;2023-12-29T09:21:50;5.66;99.99
63051;SHT30;49136;47.416;19.402;2023-12-29T09:24:16;5.71;99.99
63051;SHT30;49136;47.416;19.402;2023-12-29T09:26:41;5.77;99.99
63051;SHT30;49136;47.416;19.402;2023-12-29T09:29:06;5.93;99.99
63051;SHT30;49136;47.416;19.402;2023-12-29T09:31:32;5.99;99.99
63051;SHT30;49136;47.416;19.402;2023-12-29T09:33:58;6.19;99.99
63051;SHT30;49136;47.416;19.402;2023-12-29T09:36:23;6.22;99.99
63051;SHT30;49136;47.416;19.402;2023-12-29T09:38:49;5.98;99.99
63051;SHT30;49136;47.416;19.402;2023-12-29T09:41:15;6.33;99.99
63051;SHT30;49136;47.416;19.402;2023-12-29T09:43:41;6.73;99.99
63051;SHT30;49136;47.416;19.402;2023-12-29T09:46:11;6.89;99.99
63051;SHT30;49136;47.416;19.402;2023-12-29T09:48:38;7.02;99.99
63051;SHT30;49136;47.416;19.402;2023-12-29T09:51:05;7.27;99.99
63051;SHT30;49136;47.416;19.402;2023-12-29T09:53:32;7.44;99.99
63051;SHT30;49136;47.416;19.402;2023-12-29T09:56:00;7.61;99.99
63051;SHT30;49136;47.416;19.402;2023-12-29T09:58:26;7.72;99.99
63051;SHT30;49136;47.416;19.402;2023-12-29T10:00:52;7.83;99.31
63051;SHT30;49136;47.416;19.402;2023-12-29T10:03:18;8.06;98.31
63051;SHT30;49136;47.416;19.402;2023-12-29T10:05:50;8.16;98.42
63051;SHT30;49136;47.416;19.402;2023-12-29T10:08:16;8.30;96.80
63051;SHT30;49136;47.416;19.402;2023-12-29T10:10:42;8.48;95.69
63051;SHT30;49136;47.416;19.402;2023-12-29T10:13:09;8.62;94.69
63051;SHT30;49136;47.416;19.402;2023-12-29T10:15:42;8.72;93.88
63051;SHT30;49136;47.416;19.402;2023-12-29T10:21:01;8.86;93.00
63051;SHT30;49136;47.416;19.402;2023-12-29T10:23:49;9.05;93.07
63051;SHT30;49136;47.416;19.402;2023-12-29T10:26:15;9.08;91.94
63051;SHT30;49136;47.416;19.402;2023-12-29T10:28:41;9.18;90.90
63051;SHT30;49136;47.416;19.402;2023-12-29T10:31:09;9.27;92.14
63051;SHT30;49136;47.416;19.402;2023-12-29T10:33:35;9.36;91.52
63051;SHT30;49136;47.416;19.402;2023-12-29T10:36:02;9.46;90.75
63051;SHT30;49136;47.416;19.402;2023-12-29T10:38:33;9.66;91.41
63051;SHT30;49136;47.416;19.402;2023-12-29T10:41:13;9.80;90.53
63051;SHT30;49136;47.416;19.402;2023-12-29T10:43:40;9.79;89.25
63051;SHT30;49136;47.416;19.402;2023-12-29T10:46:06;9.69;88.98
63051;SHT30;49136;47.416;19.402;2023-12-29T10:48:35;9.56;89.02
63051;SHT30;49136;47.416;19.402;2023-12-29T10:51:02;9.91;90.62
63051;SHT30;49136;47.416;19.402;2023-12-29T10:53:36;9.87;89.57
63051;SHT30;49136;47.416;19.402;2023-12-29T10:56:01;9.95;89.21
63051;SHT30;49136;47.416;19.402;2023-12-29T10:58:28;10.02;89.27
63051;SHT30;49136;47.416;19.402;2023-12-29T11:00:58;10.14;89.48
63051;SHT30;49136;47.416;19.402;2023-12-29T11:03:23;10.26;89.17
63051;SHT30;49136;47.416;19.402;2023-12-29T11:05:51;10.09;88.28
63051;SHT30;49136;47.416;19.402;2023-12-29T11:08:18;10.21;88.99
63051;SHT30;49136;47.416;19.402;2023-12-29T11:10:44;10.25;88.75
63051;SHT30;49136;47.416;19.402;2023-12-29T11:13:12;10.28;88.53
63051;SHT30;49136;47.416;19.402;2023-12-29T11:15:43;10.24;87.93
63051;SHT30;49136;47.416;19.402;2023-12-29T11:18:13;10.24;87.08
63051;SHT30;49136;47.416;19.402;2023-12-29T11:20:39;10.22;86.67
63051;SHT30;49136;47.416;19.402;2023-12-29T11:23:06;10.28;87.93
63051;SHT30;49136;47.416;19.402;2023-12-29T11:25:36;10.32;87.68
63051;SHT30;49136;47.416;19.402;2023-12-29T11:28:01;10.28;86.95
63051;SHT30;49136;47.416;19.402;2023-12-29T11:30:27;10.42;87.79
63051;SHT30;49136;47.416;19.402;2023-12-29T11:32:59;10.40;88.06
63051;SHT30;49136;47.416;19.402;2023-12-29T11:35:33;10.40;87.03
63051;SHT30;49136;47.416;19.402;2023-12-29T11:38:23;10.36;87.84
63051;SHT30;49136;47.416;19.402;2023-12-29T11:44:00;10.77;86.80
63051;SHT30;49136;47.416;19.402;2023-12-29T11:49:08;10.73;86.90
63051;SHT30;49136;47.416;19.402;2023-12-29T11:51:41;10.64;86.26
63051;SHT30;49136;47.416;19.402;2023-12-29T11:54:10;10.64;86.87
63051;SHT30;49136;47.416;19.402;2023-12-29T11:56:37;10.60;87.35
63051;SHT30;49136;47.416;19.402;2023-12-29T12:01:53;10.70;87.49
63051;SHT30;49136;47.416;19.402;2023-12-29T12:07:08;10.77;86.27
63051;SHT30;49136;47.416;19.402;2023-12-29T12:09:34;10.63;86.28
63051;SHT30;49136;47.416;19.402;2023-12-29T12:12:01;10.61;86.68
63051;SHT30;49136;47.416;19.402;2023-12-29T12:17:28;10.52;86.93
63051;SHT30;49136;47.416;19.402;2023-12-29T12:20:07;10.57;86.14
63051;SHT30;49136;47.416;19.402;2023-12-29T12:22:35;10.55;86.29
63051;SHT30;49136;47.416;19.402;2023-12-29T12:25:01;10.53;86.84
63051;SHT30;49136;47.416;19.402;2023-12-29T12:27:27;10.48;86.84
63051;SHT30;49136;47.416;19.402;2023-12-29T12:29:58;10.56;86.84
63051;SHT30;49136;47.416;19.402;2023-12-29T12:32:27;10.39;86.69
63051;SHT30;49136;47.416;19.402;2023-12-29T12:34:53;10.46;87.51
63051;SHT30;49136;47.416;19.402;2023-12-29T12:37:23;10.50;86.42
63051;SHT30;49136;47.416;19.402;2023-12-29T12:39:49;10.49;86.63
63051;SHT30;49136;47.416;19.402;2023-12-29T12:42:16;10.48;87.12
63051;SHT30;49136;47.416;19.402;2023-12-29T12:44:56;10.50;86.46
63051;SHT30;49136;47.416;19.402;2023-12-29T12:47:37;10.43;86.28
63051;SHT30;49136;47.416;19.402;2023-12-29T12:50:05;10.33;87.40
63051;SHT30;49136;47.416;19.402;2023-12-29T12:52:32;10.49;86.34
63051;SHT30;49136;47.416;19.402;2023-12-29T12:54:57;10.29;87.08
63051;SHT30;49136;47.416;19.402;2023-12-29T12:57:23;10.38;86.83
63051;SHT30;49136;47.416;19.402;2023-12-29T12:59:50;10.32;87.71
63051;SHT30;49136;47.416;19.402;2023-12-29T13:02:16;10.39;87.24
63051;SHT30;49136;47.416;19.402;2023-12-29T13:04:42;10.32;86.44
63051;SHT30;49136;47.416;19.402;2023-12-29T13:07:08;10.29;87.28
63051;SHT30;49136;47.416;19.402;2023-12-29T13:09:36;10.29;87.28
63051;SHT30;49136;47.416;19.402;2023-12-29T13:12:12;10.29;87.59
63051;SHT30;49136;47.416;19.402;2023-12-29T13:14:38;10.28;86.86
63051;SHT30;49136;47.416;19.402;2023-12-29T13:17:11;10.29;86.93
63051;SHT30;49136;47.416;19.402;2023-12-29T13:19:37;10.35;87.00
63051;SHT30;49136;47.416;19.402;2023-12-29T13:22:11;10.43;87.05
63051;SHT30;49136;47.416;19.402;2023-12-29T13:24:43;10.46;87.34
63051;SHT30;49136;47.416;19.402;2023-12-29T13:27:09;10.59;86.60
63051;SHT30;49136;47.416;19.402;2023-12-29T13:29:35;10.63;86.50
63051;SHT30;49136;47.416;19.402;2023-12-29T13:32:16;10.45;86.45
63051;SHT30;49136;47.416;19.402;2023-12-29T13:35:18;10.42;87.30
63051;SHT30;49136;47.416;19.402;2023-12-29T13:38:01;10.45;87.55
63051;SHT30;49136;47.416;19.402;2023-12-29T13:40:37;10.38;87.39
63051;SHT30;49136;47.416;19.402;2023-12-29T13:43:08;10.24;87.37
63051;SHT30;49136;47.416;19.402;2023-12-29T13:45:34;10.24;87.52
63051;SHT30;49136;47.416;19.402;2023-12-29T13:48:00;10.11;87.24
63051;SHT30;49136;47.416;19.402;2023-12-29T13:50:26;10.11;87.05
63051;SHT30;49136;47.416;19.402;2023-12-29T13:52:52;10.07;87.22
63051;SHT30;49136;47.416;19.402;2023-12-29T13:55:21;9.93;87.60
63051;SHT30;49136;47.416;19.402;2023-12-29T13:57:48;9.86;87.63
63051;SHT30;49136;47.416;19.402;2023-12-29T14:00:19;9.80;88.12
63051;SHT30;49136;47.416;19.402;2023-12-29T14:02:58;9.70;88.28
63051;SHT30;49136;47.416;19.402;2023-12-29T14:05:31;9.55;88.66
63051;SHT30;49136;47.416;19.402;2023-12-29T14:10:54;9.31;89.66
63051;SHT30;49136;47.416;19.402;2023-12-29T14:13:20;9.14;90.04
63051;SHT30;49136;47.416;19.402;2023-12-29T14:15:46;9.08;90.26
63051;SHT30;49136;47.416;19.402;2023-12-29T14:21:32;8.76;91.72
63051;SHT30;49136;47.416;19.402;2023-12-29T14:26:23;8.48;92.73
63051;SHT30;49136;47.416;19.402;2023-12-29T14:29:06;8.33;92.96
63051;SHT30;49136;47.416;19.402;2023-12-29T14:31:37;8.24;93.34
63051;SHT30;49136;47.416;19.402;2023-12-29T14:34:04;8.19;93.71
63051;SHT30;49136;47.416;19.402;2023-12-29T14:36:31;8.06;94.40
63051;SHT30;49136;47.416;19.402;2023-12-29T14:38:56;7.94;94.90
63051;SHT30;49136;47.416;19.402;2023-12-29T14:41:22;7.78;95.49
63051;SHT30;49136;47.416;19.402;2023-12-29T14:43:47;7.67;96.00
63051;SHT30;49136;47.416;19.402;2023-12-29T14:46:13;7.54;96.16
63051;SHT30;49136;47.416;19.402;2023-12-29T14:48:38;7.44;96.06
63051;SHT30;49136;47.416;19.402;2023-12-29T14:51:04;7.31;96.21
63051;SHT30;49136;47.416;19.402;2023-12-29T14:53:32;7.22;96.67
63051;SHT30;49136;47.416;19.402;2023-12-29T14:55:58;7.05;97.21
63051;SHT30;49136;47.416;19.402;2023-12-29T14:58:24;6.95;98.22
63051;SHT30;49136;47.416;19.402;2023-12-29T15:00:49;6.80;98.38
63051;SHT30;49136;47.416;19.402;2023-12-29T15:03:15;6.63;98.36
63051;SHT30;49136;47.416;19.402;2023-12-29T15:05:43;6.53;99.65
63051;SHT30;49136;47.416;19.402;2023-12-29T15:08:09;6.46;99.55
63051;SHT30;49136;47.416;19.402;2023-12-29T15:10:35;6.28;99.75
63051;SHT30;49136;47.416;19.402;2023-12-29T15:13:01;6.08;99.82
63051;SHT30;49136;47.416;19.402;2023-12-29T15:15:27;5.90;99.99
63051;SHT30;49136;47.416;19.402;2023-12-29T15:17:52;5.75;99.99
63051;SHT30;49136;47.416;19.402;2023-12-29T15:20:18;5.60;99.99
63051;SHT30;49136;47.416;19.402;2023-12-29T15:22:43;5.40;99.99
63051;SHT30;49136;47.416;19.402;2023-12-29T15:25:09;5.21;99.99
63051;SHT30;49136;47.416;19.402;2023-12-29T15:27:34;5.17;99.99
63051;SHT30;49136;47.416;19.402;2023-12-29T15:30:00;5.03;99.99
63051;SHT30;49136;47.416;19.402;2023-12-29T15:32:26;4.88;99.99
63051;SHT30;49136;47.416;19.402;2023-12-29T15:34:51;4.79;99.99
63051;SHT30;49136;47.416;19.402;2023-12-29T15:37:16;4.76;99.99
63051;SHT30;49136;47.416;19.402;2023-12-29T15:39:44;4.58;99.99
63051;SHT30;49136;47.416;19.402;2023-12-29T15:42:10;4.48;99.99
63051;SHT30;49136;47.416;19.402;2023-12-29T15:44:35;4.41;99.99
63051;SHT30;49136;47.416;19.402;2023-12-29T15:47:00;4.30;99.99